Terminal Aerodrome Forecast
Issued by NWS Sterling, VA

Current Version | Previous Version | Graphics & Text | Print | Product List | Glossary On
Versions: 1 2 3 4 5 6 7 8 9 10 11 12 13 14 15 16 17 18 19 20 21 22 23
351
FTUS41 KLWX 280531
TAFMRB
TAF
KMRB 280531Z 2806/2906 00000KT 6SM BR SKC
     FM280800 00000KT 6SM BR BKN060
     FM281800 VRB03KT P6SM SHRA VCTS BKN050CB
     FM290000 29004KT 4SM SHRA VCTS OVC050CB=

USA.gov is the U.S. government's official web portal to all federal, state and local government web resources and services.